Time;durP1;ratioP1;P1;durP2;ratioP2;P2;SDS_P1;SDS_P2;PMS_P1;PMS_P2;Temp;Humidity;BMP_temperature;BMP_pressure;BME280_temperature;BME280_humidity;BME280_pressure;Samples;Min_cycle;Max_cycle;Signal;HPM_P1;HPM_P2
2022/01/20 00:02:01;;;;;;;6.30;5.70;;;;;;;;;;5125348;28;24946;-59
2022/01/20 00:04:39;;;;;;;5.65;5.15;;;;;;;;;;5126227;28;24489;-59
2022/01/20 00:07:28;;;;;;;5.80;5.30;;;;;;;;;;5122200;28;25026;-59
2022/01/20 00:23:41;;;;;;;6.40;5.80;;;;;;;;;;5126916;28;24432;-59
2022/01/20 00:26:07;;;;;;;6.55;5.95;;;;;;;;;;5118711;28;24529;-58
2022/01/20 00:28:42;;;;;;;6.50;5.90;;;;;;;;;;5115438;28;24466;-59
2022/01/20 00:31:31;;;;;;;6.50;5.90;;;;;;;;;;5125671;28;24445;-59
2022/01/20 00:34:12;;;;;;;6.00;5.50;;;;;;;;;;5125995;28;24466;-58
2022/01/20 00:39:22;;;;;;;6.50;6.00;;;;;;;;;;5119267;28;24436;-57
2022/01/20 00:41:47;;;;;;;7.17;6.47;;;;;;;;;;5127130;27;25197;-58
2022/01/20 00:44:12;;;;;;;6.15;5.65;;;;;;;;;;5129722;27;24542;-58
2022/01/20 00:46:37;;;;;;;6.43;5.82;;;;;;;;;;5128697;27;24412;-57
2022/01/20 00:49:02;;;;;;;6.10;5.50;;;;;;;;;;5119525;27;24538;-57
2022/01/20 00:51:27;;;;;;;6.40;5.90;;;;;;;;;;5127981;27;24521;-58
2022/01/20 00:53:54;;;;;;;6.55;5.85;;;;;;;;;;5129765;27;24427;-58
2022/01/20 00:56:20;;;;;;;6.30;5.70;;;;;;;;;;5124505;27;24821;-58
2022/01/20 00:58:45;;;;;;;6.23;5.63;;;;;;;;;;5127227;27;24417;-59
2022/01/20 01:01:10;;;;;;;6.03;5.53;;;;;;;;;;5128426;27;25178;-57
2022/01/20 01:03:35;;;;;;;6.07;5.57;;;;;;;;;;5119812;27;24783;-58
2022/01/20 01:06:35;;;;;;;5.85;5.35;;;;;;;;;;5128413;27;24428;-58
2022/01/20 01:08:46;;;;;;;5.90;5.40;;;;;;;;;;5126970;27;24408;-58
2022/01/20 01:11:11;;;;;;;5.70;5.20;;;;;;;;;;5128829;27;24821;-58
2022/01/20 01:13:36;;;;;;;5.60;5.10;;;;;;;;;;5128945;27;24413;-56
2022/01/20 01:16:03;;;;;;;6.13;5.63;;;;;;;;;;5127845;27;24435;-57
2022/01/20 01:21:16;;;;;;;5.10;4.70;;;;;;;;;;5128834;27;24432;-58
2022/01/20 01:23:43;;;;;;;4.97;4.57;;;;;;;;;;5129433;27;24414;-58
2022/01/20 01:26:10;;;;;;;5.75;5.25;;;;;;;;;;5128512;27;24409;-59
2022/01/20 01:28:35;;;;;;;5.00;4.60;;;;;;;;;;5126853;27;24497;-58
2022/01/20 01:33:41;;;;;;;5.70;5.20;;;;;;;;;;5128863;27;24427;-58
2022/01/20 01:36:08;;;;;;;4.80;4.40;;;;;;;;;;5128022;27;24409;-56
2022/01/20 01:38:36;;;;;;;5.32;4.82;;;;;;;;;;5124597;27;24437;-59
2022/01/20 01:41:06;;;;;;;5.50;5.00;;;;;;;;;;5127357;27;24401;-59
2022/01/20 01:43:32;;;;;;;5.10;4.70;;;;;;;;;;5129110;27;24792;-57
2022/01/20 01:46:00;;;;;;;5.20;4.80;;;;;;;;;;5128668;27;24460;-58
2022/01/20 01:48:25;;;;;;;5.25;4.80;;;;;;;;;;5127760;27;24494;-57
2022/01/20 01:50:51;;;;;;;5.40;5.00;;;;;;;;;;5127492;27;24981;-57
2022/01/20 01:53:16;;;;;;;5.32;4.90;;;;;;;;;;5127132;27;24420;-58
2022/01/20 01:55:42;;;;;;;5.20;4.80;;;;;;;;;;5128064;27;24462;-58
2022/01/20 01:58:07;;;;;;;5.80;5.30;;;;;;;;;;5127905;27;25042;-57
2022/01/20 02:00:32;;;;;;;5.70;5.10;;;;;;;;;;5127422;27;24509;-58
2022/01/20 02:02:58;;;;;;;5.20;4.80;;;;;;;;;;5127688;27;24424;-58
2022/01/20 02:05:23;;;;;;;4.90;4.50;;;;;;;;;;5128491;27;24416;-58
2022/01/20 02:18:49;;;;;;;7.65;4.43;;;;;;;;;;5128009;27;24462;-57
2022/01/20 02:21:14;;;;;;;6.32;4.80;;;;;;;;;;5115592;27;24508;-56
2022/01/20 02:23:40;;;;;;;7.10;4.30;;;;;;;;;;5128134;27;24505;-57
2022/01/20 02:26:05;;;;;;;5.97;4.30;;;;;;;;;;5120473;27;24490;-57
2022/01/20 02:28:30;;;;;;;7.20;4.60;;;;;;;;;;5126277;27;24517;-57
2022/01/20 02:30:56;;;;;;;7.40;3.90;;;;;;;;;;5125606;27;24432;-57
2022/01/20 02:33:23;;;;;;;7.33;3.93;;;;;;;;;;5126494;27;24497;-57
2022/01/20 02:35:50;;;;;;;9.60;4.50;;;;;;;;;;5127614;27;24971;-58
2022/01/20 02:38:28;;;;;;;10.95;4.00;;;;;;;;;;5123964;27;24448;-58
2022/01/20 02:46:21;;;;;;;10.65;3.80;;;;;;;;;;5127474;27;24751;-57
2022/01/20 02:48:47;;;;;;;12.00;3.93;;;;;;;;;;5127562;27;24409;-57
2022/01/20 02:51:12;;;;;;;9.93;3.77;;;;;;;;;;5126034;27;24404;-58
2022/01/20 02:53:37;;;;;;;10.17;3.60;;;;;;;;;;5124292;27;24404;-57
2022/01/20 02:56:02;;;;;;;11.23;3.70;;;;;;;;;;5126653;27;24405;-58
2022/01/20 02:58:28;;;;;;;6.93;3.00;;;;;;;;;;5122843;27;25175;-58
2022/01/20 03:00:53;;;;;;;9.53;3.50;;;;;;;;;;5125797;27;24939;-57
2022/01/20 03:03:18;;;;;;;9.50;3.80;;;;;;;;;;5124185;27;24858;-57
2022/01/20 03:05:43;;;;;;;8.00;3.05;;;;;;;;;;5126710;27;24488;-57
2022/01/20 03:08:09;;;;;;;8.70;3.30;;;;;;;;;;5126519;27;24515;-58
2022/01/20 03:10:34;;;;;;;6.07;2.83;;;;;;;;;;5125879;27;24493;-58
2022/01/20 03:12:59;;;;;;;8.65;3.40;;;;;;;;;;5126123;27;25056;-58
2022/01/20 03:15:25;;;;;;;7.95;3.30;;;;;;;;;;5125594;27;24509;-58
2022/01/20 03:17:50;;;;;;;11.07;3.43;;;;;;;;;;5126440;27;24413;-57
2022/01/20 03:20:15;;;;;;;7.05;3.00;;;;;;;;;;5126370;27;24461;-58
2022/01/20 03:22:40;;;;;;;9.73;3.00;;;;;;;;;;5126666;27;24448;-58
2022/01/20 03:25:05;;;;;;;9.27;3.25;;;;;;;;;;5123240;27;25241;-58
2022/01/20 03:27:31;;;;;;;8.97;2.70;;;;;;;;;;5126451;27;25268;-57
2022/01/20 03:29:56;;;;;;;9.85;3.20;;;;;;;;;;5125494;27;24420;-58
2022/01/20 03:32:21;;;;;;;6.93;3.20;;;;;;;;;;5126338;27;24409;-58
2022/01/20 03:34:46;;;;;;;7.72;3.10;;;;;;;;;;5125514;28;24425;-57
2022/01/20 03:37:11;;;;;;;9.40;3.60;;;;;;;;;;5126254;28;24524;-58
2022/01/20 03:39:36;;;;;;;9.50;3.30;;;;;;;;;;5121736;28;24417;-58
2022/01/20 03:42:02;;;;;;;9.40;3.30;;;;;;;;;;5126152;28;24433;-57
2022/01/20 03:44:27;;;;;;;8.40;3.20;;;;;;;;;;5126068;28;24413;-57
2022/01/20 03:46:52;;;;;;;9.23;3.80;;;;;;;;;;5120561;28;24495;-57
2022/01/20 03:49:38;;;;;;;8.70;3.13;;;;;;;;;;5120871;28;24809;-57
2022/01/20 03:52:04;;;;;;;6.93;3.05;;;;;;;;;;5116656;28;24474;-57
2022/01/20 03:54:29;;;;;;;8.00;2.50;;;;;;;;;;5125315;28;24882;-60
2022/01/20 03:56:54;;;;;;;11.23;3.10;;;;;;;;;;5121668;28;24428;-57
2022/01/20 03:59:19;;;;;;;11.65;2.60;;;;;;;;;;5126561;28;24482;-57
2022/01/20 04:01:45;;;;;;;10.27;3.08;;;;;;;;;;5123569;28;24424;-59
2022/01/20 04:04:10;;;;;;;9.10;2.67;;;;;;;;;;5126623;28;24417;-58
2022/01/20 04:06:35;;;;;;;8.83;3.20;;;;;;;;;;5123857;28;24428;-59
2022/01/20 04:09:00;;;;;;;8.97;2.33;;;;;;;;;;5125423;28;24398;-58
2022/01/20 04:11:26;;;;;;;6.35;2.25;;;;;;;;;;5123746;28;24459;-58
2022/01/20 04:13:52;;;;;;;7.10;2.92;;;;;;;;;;5125364;28;24449;-59
2022/01/20 04:16:20;;;;;;;7.40;2.50;;;;;;;;;;5126204;27;24591;-58
2022/01/20 04:18:55;;;;;;;6.15;2.45;;;;;;;;;;5128953;27;25033;-56
2022/01/20 04:21:21;;;;;;;6.80;2.37;;;;;;;;;;5128835;27;24421;-57
2022/01/20 04:23:46;;;;;;;7.00;2.70;;;;;;;;;;5130218;27;24485;-58
2022/01/20 04:26:11;;;;;;;8.02;2.50;;;;;;;;;;5129106;27;24425;-57
2022/01/20 04:28:36;;;;;;;5.50;2.35;;;;;;;;;;5128461;27;24999;-58
2022/01/20 04:31:01;;;;;;;6.05;2.58;;;;;;;;;;5129558;27;24417;-59
2022/01/20 04:33:27;;;;;;;8.48;2.85;;;;;;;;;;5129309;27;24476;-58
2022/01/20 04:35:52;;;;;;;6.15;2.80;;;;;;;;;;5123715;27;25067;-58
2022/01/20 04:38:17;;;;;;;7.93;2.70;;;;;;;;;;5125666;27;24440;-58
2022/01/20 04:40:43;;;;;;;5.90;2.23;;;;;;;;;;5127690;27;25026;-58
2022/01/20 04:43:08;;;;;;;5.17;2.57;;;;;;;;;;5129552;27;24641;-58
2022/01/20 04:45:47;;;;;;;8.60;2.60;;;;;;;;;;5127832;27;25360;-58
2022/01/20 04:48:27;;;;;;;6.97;2.60;;;;;;;;;;5128997;27;24464;-57
2022/01/20 04:59:04;;;;;;;6.43;3.20;;;;;;;;;;5128880;27;24413;-56
2022/01/20 05:01:30;;;;;;;6.82;3.00;;;;;;;;;;5127563;27;24811;-57
2022/01/20 05:03:56;;;;;;;5.83;2.60;;;;;;;;;;5126555;27;24527;-57
2022/01/20 05:06:21;;;;;;;5.50;2.80;;;;;;;;;;5125919;27;24543;-57
2022/01/20 05:08:48;;;;;;;4.03;2.80;;;;;;;;;;5128631;27;24503;-58
2022/01/20 05:11:14;;;;;;;5.70;2.70;;;;;;;;;;5128695;27;24401;-57
2022/01/20 05:13:40;;;;;;;6.82;2.80;;;;;;;;;;5129234;27;24420;-57
2022/01/20 05:16:06;;;;;;;5.30;2.70;;;;;;;;;;5127655;27;24413;-57
2022/01/20 05:18:31;;;;;;;5.50;2.60;;;;;;;;;;5128862;27;24720;-57
2022/01/20 05:20:56;;;;;;;5.40;2.50;;;;;;;;;;5123324;27;24416;-57
2022/01/20 05:23:21;;;;;;;5.20;2.70;;;;;;;;;;5124294;27;26273;-57
2022/01/20 05:25:47;;;;;;;6.60;2.50;;;;;;;;;;5121968;27;24422;-57
2022/01/20 05:28:12;;;;;;;4.40;2.40;;;;;;;;;;5123108;27;25017;-58
2022/01/20 05:30:38;;;;;;;7.60;2.70;;;;;;;;;;5126839;27;24436;-57
2022/01/20 05:33:04;;;;;;;6.60;2.40;;;;;;;;;;5125917;27;24795;-57
2022/01/20 05:35:29;;;;;;;8.00;2.70;;;;;;;;;;5128223;27;24424;-57
2022/01/20 05:37:54;;;;;;;7.55;3.00;;;;;;;;;;5122877;27;24464;-57
2022/01/20 05:40:20;;;;;;;10.00;2.97;;;;;;;;;;5125170;27;25000;-58
2022/01/20 05:42:45;;;;;;;7.88;2.97;;;;;;;;;;5124024;27;24815;-57
2022/01/20 05:45:12;;;;;;;6.73;2.80;;;;;;;;;;5125030;27;24478;-57
2022/01/20 05:47:43;;;;;;;8.25;3.13;;;;;;;;;;5123003;27;24401;-58
2022/01/20 05:50:09;;;;;;;7.93;2.75;;;;;;;;;;5106162;27;24474;-59
2022/01/20 05:52:41;;;;;;;4.87;2.63;;;;;;;;;;5112902;27;24527;-59
2022/01/20 05:55:06;;;;;;;8.57;3.40;;;;;;;;;;5107988;27;24463;-59
2022/01/20 05:57:31;;;;;;;9.50;3.20;;;;;;;;;;5121702;27;24497;-57
2022/01/20 05:59:56;;;;;;;6.57;2.80;;;;;;;;;;5124840;27;24469;-58
2022/01/20 06:02:35;;;;;;;8.87;3.00;;;;;;;;;;5123828;27;24444;-58
2022/01/20 06:05:00;;;;;;;8.77;3.23;;;;;;;;;;5123514;27;24768;-57
2022/01/20 06:07:26;;;;;;;6.60;3.38;;;;;;;;;;5123481;27;24979;-57
2022/01/20 06:09:51;;;;;;;9.80;3.10;;;;;;;;;;5124963;27;24993;-57
2022/01/20 06:12:16;;;;;;;7.65;3.50;;;;;;;;;;5124985;27;24532;-58
2022/01/20 06:14:41;;;;;;;7.47;3.07;;;;;;;;;;5124566;27;24427;-58
2022/01/20 06:17:06;;;;;;;6.43;2.95;;;;;;;;;;5120394;27;26630;-58
2022/01/20 06:19:32;;;;;;;8.63;2.90;;;;;;;;;;5124383;27;24412;-58
2022/01/20 06:21:57;;;;;;;9.95;3.75;;;;;;;;;;5127136;27;24486;-58
2022/01/20 06:24:22;;;;;;;9.43;3.05;;;;;;;;;;5120210;27;24414;-58
2022/01/20 06:26:47;;;;;;;11.20;3.67;;;;;;;;;;5105874;28;24388;-57
2022/01/20 06:29:12;;;;;;;6.90;2.92;;;;;;;;;;5122932;27;24398;-57
2022/01/20 06:31:37;;;;;;;9.07;3.50;;;;;;;;;;5127469;27;24397;-57
2022/01/20 06:34:03;;;;;;;7.10;3.37;;;;;;;;;;5127678;27;24442;-57
2022/01/20 06:36:28;;;;;;;8.70;3.30;;;;;;;;;;5126821;27;25060;-57
2022/01/20 06:38:54;;;;;;;8.88;3.00;;;;;;;;;;5126563;27;24537;-57
2022/01/20 06:41:19;;;;;;;9.23;3.10;;;;;;;;;;5127264;27;24408;-58
2022/01/20 06:43:44;;;;;;;9.50;3.70;;;;;;;;;;5127135;27;24941;-58
2022/01/20 06:46:09;;;;;;;8.43;3.60;;;;;;;;;;5126778;27;24433;-59
2022/01/20 06:48:35;;;;;;;10.00;3.40;;;;;;;;;;5126985;27;24409;-59
2022/01/20 06:51:00;;;;;;;10.57;3.50;;;;;;;;;;5125129;27;24946;-58
2022/01/20 06:53:25;;;;;;;11.05;3.25;;;;;;;;;;5113996;27;24413;-59
2022/01/20 06:55:50;;;;;;;8.07;3.50;;;;;;;;;;5119084;27;24425;-59
2022/01/20 06:58:15;;;;;;;12.30;3.90;;;;;;;;;;5120265;27;24523;-59
2022/01/20 07:00:40;;;;;;;9.10;3.65;;;;;;;;;;5124230;27;24424;-58
2022/01/20 07:03:06;;;;;;;9.48;3.20;;;;;;;;;;5118576;27;24429;-58
2022/01/20 07:05:31;;;;;;;7.47;3.00;;;;;;;;;;5126477;27;24443;-58
2022/01/20 07:07:56;;;;;;;9.63;3.08;;;;;;;;;;5125933;27;24981;-60
2022/01/20 07:10:21;;;;;;;7.15;2.90;;;;;;;;;;5123996;27;24461;-58
2022/01/20 07:12:47;;;;;;;7.15;2.60;;;;;;;;;;5115824;27;24409;-57
2022/01/20 07:15:13;;;;;;;6.50;2.60;;;;;;;;;;5119316;27;24824;-58
2022/01/20 07:17:39;;;;;;;6.27;2.80;;;;;;;;;;5123135;27;24440;-58
2022/01/20 07:20:04;;;;;;;7.20;2.80;;;;;;;;;;5122421;27;24947;-57
2022/01/20 07:22:30;;;;;;;5.53;2.40;;;;;;;;;;5121650;27;24475;-58
2022/01/20 07:24:55;;;;;;;5.93;2.40;;;;;;;;;;5123384;27;24420;-57
2022/01/20 07:27:20;;;;;;;5.93;2.60;;;;;;;;;;5116249;27;24962;-58
2022/01/20 07:29:45;;;;;;;5.40;2.97;;;;;;;;;;5118602;27;24424;-58
2022/01/20 07:32:10;;;;;;;5.17;3.20;;;;;;;;;;5119613;27;24412;-58
2022/01/20 07:34:36;;;;;;;6.83;2.90;;;;;;;;;;5115538;27;25002;-58
2022/01/20 07:37:01;;;;;;;2.50;1.73;;;;;;;;;;5121987;28;24420;-57
2022/01/20 07:39:27;;;;;;;7.00;2.05;;;;;;;;;;5120412;28;24451;-58
2022/01/20 07:41:52;;;;;;;4.60;1.83;;;;;;;;;;5124938;28;24542;-57
2022/01/20 07:44:17;;;;;;;3.65;1.80;;;;;;;;;;5126551;28;24492;-58
2022/01/20 07:46:43;;;;;;;4.23;2.00;;;;;;;;;;5126044;28;24950;-61
2022/01/20 07:49:08;;;;;;;4.70;1.85;;;;;;;;;;5126485;28;24572;-62
2022/01/20 07:51:33;;;;;;;4.30;2.10;;;;;;;;;;5128962;27;24443;-61
2022/01/20 07:53:58;;;;;;;2.70;1.40;;;;;;;;;;5130906;27;24972;-58
2022/01/20 07:56:24;;;;;;;3.42;1.70;;;;;;;;;;5130118;27;24433;-58
2022/01/20 07:58:49;;;;;;;4.70;1.60;;;;;;;;;;5130098;27;24401;-59
2022/01/20 08:01:14;;;;;;;4.27;1.40;;;;;;;;;;5129901;27;24844;-64
2022/01/20 08:03:39;;;;;;;3.30;1.70;;;;;;;;;;5130938;27;24416;-59
2022/01/20 08:06:04;;;;;;;3.20;1.60;;;;;;;;;;5130492;27;24393;-58
2022/01/20 08:08:29;;;;;;;4.40;1.50;;;;;;;;;;5130023;27;24405;-59
2022/01/20 08:10:55;;;;;;;2.90;1.45;;;;;;;;;;5130076;27;24551;-58
2022/01/20 08:13:20;;;;;;;4.97;2.00;;;;;;;;;;5130331;27;24499;-58
2022/01/20 08:15:45;;;;;;;5.80;1.90;;;;;;;;;;5130330;27;24420;-59
2022/01/20 08:18:10;;;;;;;5.67;2.23;;;;;;;;;;5130453;27;24416;-57
2022/01/20 08:20:35;;;;;;;5.40;1.90;;;;;;;;;;5129935;27;24958;-57
2022/01/20 08:23:01;;;;;;;5.47;1.80;;;;;;;;;;5129280;27;24563;-57
2022/01/20 08:25:26;;;;;;;5.60;1.80;;;;;;;;;;5130441;27;24858;-58
2022/01/20 08:27:52;;;;;;;6.03;2.37;;;;;;;;;;5130344;27;24389;-58
2022/01/20 08:30:18;;;;;;;4.72;2.15;;;;;;;;;;5129420;27;24493;-57
2022/01/20 08:32:44;;;;;;;5.80;1.90;;;;;;;;;;5129495;27;24420;-58
2022/01/20 08:35:10;;;;;;;4.53;2.17;;;;;;;;;;5130471;27;24389;-58
2022/01/20 08:37:37;;;;;;;6.00;2.27;;;;;;;;;;5129699;27;24992;-58
2022/01/20 08:40:09;;;;;;;4.45;1.90;;;;;;;;;;5128930;27;24510;-57
2022/01/20 08:42:34;;;;;;;3.83;1.65;;;;;;;;;;5129482;27;24957;-58
2022/01/20 08:44:59;;;;;;;7.00;2.07;;;;;;;;;;5129849;27;24508;-58
2022/01/20 08:47:26;;;;;;;6.20;2.20;;;;;;;;;;5129076;27;24844;-58
2022/01/20 08:49:51;;;;;;;4.40;1.65;;;;;;;;;;5129492;27;24791;-58
2022/01/20 08:52:16;;;;;;;4.30;2.30;;;;;;;;;;5129628;27;24966;-58
2022/01/20 08:54:45;;;;;;;6.25;2.05;;;;;;;;;;5129523;27;24439;-58
2022/01/20 08:57:10;;;;;;;6.60;2.10;;;;;;;;;;5129551;27;24512;-58
2022/01/20 08:59:37;;;;;;;4.87;2.10;;;;;;;;;;5129663;27;24573;-59
2022/01/20 09:02:02;;;;;;;6.95;2.30;;;;;;;;;;5128283;27;24425;-57
2022/01/20 09:04:28;;;;;;;6.30;2.10;;;;;;;;;;5129636;27;24454;-59
2022/01/20 09:06:53;;;;;;;7.45;2.20;;;;;;;;;;5129027;27;24504;-58
2022/01/20 09:09:20;;;;;;;5.67;2.07;;;;;;;;;;5129197;27;24443;-59
2022/01/20 09:12:14;;;;;;;7.10;2.30;;;;;;;;;;5128968;27;24443;-59
2022/01/20 09:17:21;;;;;;;6.72;2.30;;;;;;;;;;5128827;27;25078;-59
2022/01/20 09:19:46;;;;;;;5.34;2.00;;;;;;;;;;5128977;27;24421;-58
2022/01/20 09:22:12;;;;;;;5.33;2.00;;;;;;;;;;5128888;27;24775;-58
2022/01/20 09:24:37;;;;;;;5.43;1.90;;;;;;;;;;5129080;27;24690;-58
2022/01/20 09:27:03;;;;;;;6.50;2.13;;;;;;;;;;5128740;27;24876;-58
2022/01/20 09:29:28;;;;;;;5.10;2.10;;;;;;;;;;5128836;27;24835;-58
2022/01/20 09:31:53;;;;;;;4.37;2.20;;;;;;;;;;5128817;27;24397;-58
2022/01/20 09:34:18;;;;;;;4.22;2.13;;;;;;;;;;5129055;27;24396;-58
2022/01/20 09:36:45;;;;;;;7.28;2.20;;;;;;;;;;5128195;27;24400;-59
2022/01/20 09:39:10;;;;;;;5.35;2.40;;;;;;;;;;5127983;27;24456;-58
2022/01/20 09:41:35;;;;;;;5.68;2.25;;;;;;;;;;5128242;27;24979;-58
2022/01/20 09:44:01;;;;;;;6.53;2.17;;;;;;;;;;5128388;27;24512;-58
2022/01/20 09:46:26;;;;;;;5.17;2.17;;;;;;;;;;5128941;27;24428;-58
2022/01/20 09:48:51;;;;;;;5.70;2.27;;;;;;;;;;5128822;27;24529;-58
2022/01/20 09:51:16;;;;;;;5.72;2.20;;;;;;;;;;5128049;27;24975;-58
2022/01/20 09:53:41;;;;;;;7.60;2.60;;;;;;;;;;5127427;27;24484;-60
2022/01/20 09:56:07;;;;;;;6.18;2.42;;;;;;;;;;5128843;27;24417;-59
2022/01/20 09:58:32;;;;;;;4.13;2.10;;;;;;;;;;5128175;27;24417;-59
2022/01/20 10:00:58;;;;;;;8.60;2.90;;;;;;;;;;5128395;27;24867;-59
2022/01/20 10:03:23;;;;;;;7.25;2.40;;;;;;;;;;5128105;27;24413;-59
2022/01/20 10:05:50;;;;;;;6.90;2.40;;;;;;;;;;5127817;27;24470;-59
2022/01/20 10:08:21;;;;;;;6.05;2.60;;;;;;;;;;5128116;27;24421;-58
2022/01/20 10:10:51;;;;;;;7.57;2.50;;;;;;;;;;5128145;27;24393;-59
2022/01/20 10:13:18;;;;;;;5.93;2.20;;;;;;;;;;5127919;27;24970;-59
2022/01/20 10:15:53;;;;;;;6.72;2.70;;;;;;;;;;5126584;27;24413;-58
2022/01/20 10:18:19;;;;;;;7.50;2.78;;;;;;;;;;5128243;27;24427;-59
2022/01/20 10:20:54;;;;;;;10.00;2.93;;;;;;;;;;5127682;27;24946;-59
2022/01/20 10:23:40;;;;;;;7.65;2.80;;;;;;;;;;5127451;27;24425;-59
2022/01/20 10:26:06;;;;;;;8.13;3.25;;;;;;;;;;5125899;27;24990;-58
2022/01/20 10:28:43;;;;;;;7.35;3.20;;;;;;;;;;5128093;27;24500;-59
2022/01/20 10:31:11;;;;;;;8.77;3.22;;;;;;;;;;5125211;27;24412;-58
2022/01/20 10:33:42;;;;;;;8.52;3.13;;;;;;;;;;5127689;27;24768;-59
2022/01/20 10:36:09;;;;;;;8.00;2.50;;;;;;;;;;5127371;27;24417;-58
2022/01/20 10:38:34;;;;;;;7.57;2.95;;;;;;;;;;5127067;27;24563;-58
2022/01/20 10:41:00;;;;;;;7.77;2.70;;;;;;;;;;5125822;27;24453;-62
2022/01/20 10:43:26;;;;;;;6.97;2.60;;;;;;;;;;5126291;27;24436;-58
2022/01/20 10:46:05;;;;;;;8.52;3.10;;;;;;;;;;5127193;27;24438;-58
2022/01/20 10:48:30;;;;;;;6.80;2.72;;;;;;;;;;5127271;27;24464;-58
2022/01/20 10:50:55;;;;;;;6.40;2.63;;;;;;;;;;5127580;27;25176;-58
2022/01/20 10:53:22;;;;;;;7.43;2.80;;;;;;;;;;5126594;27;24417;-59
2022/01/20 10:55:47;;;;;;;6.85;2.72;;;;;;;;;;5127635;27;24943;-58
2022/01/20 10:58:17;;;;;;;7.50;2.50;;;;;;;;;;5127159;27;24413;-59
2022/01/20 11:00:46;;;;;;;8.48;3.25;;;;;;;;;;5127283;27;24416;-59
2022/01/20 11:03:11;;;;;;;6.18;2.38;;;;;;;;;;5126967;27;24504;-58
2022/01/20 11:05:37;;;;;;;10.30;2.90;;;;;;;;;;5127435;27;24402;-58
2022/01/20 11:08:02;;;;;;;9.88;2.75;;;;;;;;;;5126635;27;24409;-58
2022/01/20 11:10:28;;;;;;;6.90;2.47;;;;;;;;;;5127487;27;24395;-58
2022/01/20 11:12:53;;;;;;;9.37;2.90;;;;;;;;;;5127374;27;24409;-59
2022/01/20 11:15:19;;;;;;;10.82;3.50;;;;;;;;;;5126861;27;24724;-58
2022/01/20 11:17:50;;;;;;;8.73;2.75;;;;;;;;;;5126867;27;24540;-59
2022/01/20 11:20:17;;;;;;;8.70;2.90;;;;;;;;;;5118669;27;24489;-59
2022/01/20 11:22:55;;;;;;;9.07;2.80;;;;;;;;;;5126525;27;24469;-59
2022/01/20 11:25:22;;;;;;;6.85;2.50;;;;;;;;;;5126505;27;24512;-58
2022/01/20 11:27:49;;;;;;;7.90;2.90;;;;;;;;;;5127349;27;24477;-59
2022/01/20 11:30:24;;;;;;;7.80;3.30;;;;;;;;;;5126973;27;24413;-59
2022/01/20 11:33:03;;;;;;;12.13;3.22;;;;;;;;;;5124840;27;24393;-59
2022/01/20 11:36:00;;;;;;;8.93;2.70;;;;;;;;;;5126654;27;24408;-59
2022/01/20 11:38:37;;;;;;;7.38;2.55;;;;;;;;;;5071106;28;24515;-59
2022/01/20 11:41:03;;;;;;;7.85;2.80;;;;;;;;;;5125495;28;24405;-58
2022/01/20 11:43:32;;;;;;;8.85;3.08;;;;;;;;;;5126695;28;24469;-58
2022/01/20 11:46:02;;;;;;;8.02;3.10;;;;;;;;;;5126555;28;25093;-59
2022/01/20 11:48:27;;;;;;;11.13;3.30;;;;;;;;;;5106132;28;24414;-58
2022/01/20 11:51:09;;;;;;;8.75;2.92;;;;;;;;;;5119331;28;24417;-58
2022/01/20 11:53:41;;;;;;;6.88;2.30;;;;;;;;;;5126661;28;24389;-58
2022/01/20 11:56:07;;;;;;;10.30;2.50;;;;;;;;;;5126843;28;24388;-58
2022/01/20 11:58:32;;;;;;;11.10;2.80;;;;;;;;;;5126291;28;25021;-58
2022/01/20 12:01:01;;;;;;;7.50;2.55;;;;;;;;;;5125992;28;24413;-58
2022/01/20 12:03:27;;;;;;;8.93;3.00;;;;;;;;;;5126719;28;24520;-58
2022/01/20 12:05:59;;;;;;;5.13;2.30;;;;;;;;;;5126687;28;24480;-59
2022/01/20 12:08:24;;;;;;;9.13;2.92;;;;;;;;;;5126099;28;24473;-59
2022/01/20 12:11:09;;;;;;;8.43;3.00;;;;;;;;;;5126269;28;24429;-58
2022/01/20 12:13:50;;;;;;;7.20;2.63;;;;;;;;;;5126108;28;24406;-58
2022/01/20 12:16:19;;;;;;;6.40;2.80;;;;;;;;;;5126506;28;24462;-58
2022/01/20 12:18:49;;;;;;;8.48;2.55;;;;;;;;;;5126310;28;24420;-58
2022/01/20 12:21:14;;;;;;;8.30;2.85;;;;;;;;;;5126219;28;24539;-58
2022/01/20 12:23:41;;;;;;;7.80;2.80;;;;;;;;;;5125735;28;24516;-59
2022/01/20 12:26:06;;;;;;;9.15;2.92;;;;;;;;;;5126619;28;25190;-58
2022/01/20 12:28:31;;;;;;;7.80;2.75;;;;;;;;;;5126307;28;24443;-59
2022/01/20 12:30:59;;;;;;;6.63;2.50;;;;;;;;;;5126495;28;24751;-59
2022/01/20 12:33:27;;;;;;;7.47;2.80;;;;;;;;;;5125819;28;24416;-59
2022/01/20 12:35:54;;;;;;;12.77;3.22;;;;;;;;;;5125668;28;24467;-58
2022/01/20 12:38:19;;;;;;;8.45;2.70;;;;;;;;;;5128575;27;24447;-57
2022/01/20 12:40:48;;;;;;;7.00;3.03;;;;;;;;;;5130152;27;24441;-57
2022/01/20 12:43:14;;;;;;;10.20;2.60;;;;;;;;;;5129288;27;24433;-58
2022/01/20 12:45:55;;;;;;;7.10;2.72;;;;;;;;;;5130256;27;24399;-59
2022/01/20 12:48:20;;;;;;;6.65;2.30;;;;;;;;;;5129876;27;24775;-58
2022/01/20 12:51:02;;;;;;;8.90;3.00;;;;;;;;;;5129739;27;24453;-58
2022/01/20 12:53:41;;;;;;;7.75;2.50;;;;;;;;;;5129363;27;24505;-58
2022/01/20 12:56:08;;;;;;;10.15;3.10;;;;;;;;;;5130042;27;24855;-59
2022/01/20 12:58:47;;;;;;;7.05;2.88;;;;;;;;;;5130051;27;24448;-59
2022/01/20 13:01:12;;;;;;;6.72;2.70;;;;;;;;;;5129666;27;24492;-58
2022/01/20 13:03:38;;;;;;;8.57;2.70;;;;;;;;;;5129883;27;25049;-58
2022/01/20 13:06:04;;;;;;;5.30;2.80;;;;;;;;;;5129759;27;24956;-58
2022/01/20 13:08:35;;;;;;;6.50;2.30;;;;;;;;;;5129525;27;24421;-58
2022/01/20 13:11:05;;;;;;;6.43;2.50;;;;;;;;;;5130014;27;25036;-59
2022/01/20 13:13:30;;;;;;;7.25;2.80;;;;;;;;;;5129623;27;24412;-56
2022/01/20 13:15:55;;;;;;;7.27;2.40;;;;;;;;;;5129579;27;24500;-59
2022/01/20 13:18:20;;;;;;;7.10;2.80;;;;;;;;;;5129512;27;24424;-59
2022/01/20 13:20:55;;;;;;;4.60;2.55;;;;;;;;;;5129876;27;24400;-59
2022/01/20 13:25:45;;;;;;;7.93;2.70;;;;;;;;;;5129392;27;24413;-56
2022/01/20 13:28:11;;;;;;;6.30;2.78;;;;;;;;;;5128922;27;24485;-58
2022/01/20 13:30:39;;;;;;;6.63;2.70;;;;;;;;;;5129674;27;24965;-58
2022/01/20 13:33:06;;;;;;;6.85;3.13;;;;;;;;;;5127209;27;25149;-59
2022/01/20 13:35:38;;;;;;;7.43;2.95;;;;;;;;;;5129915;27;24495;-59
2022/01/20 13:38:04;;;;;;;6.78;2.50;;;;;;;;;;5120608;27;24433;-59
2022/01/20 13:40:30;;;;;;;8.35;2.67;;;;;;;;;;5108693;28;24471;-59
2022/01/20 13:45:53;;;;;;;7.43;2.80;;;;;;;;;;5108597;28;24441;-58
2022/01/20 13:48:24;;;;;;;8.13;3.10;;;;;;;;;;5108569;28;24955;-58
2022/01/20 13:50:53;;;;;;;6.03;2.40;;;;;;;;;;5108538;28;24422;-57
2022/01/20 13:53:20;;;;;;;8.55;2.60;;;;;;;;;;5108688;28;24711;-58
2022/01/20 13:55:50;;;;;;;8.52;2.85;;;;;;;;;;5108690;28;24511;-57
2022/01/20 13:58:27;;;;;;;7.68;2.90;;;;;;;;;;5108217;28;24441;-58
2022/01/20 14:00:53;;;;;;;7.05;2.80;;;;;;;;;;5108144;27;24504;-58
2022/01/20 14:03:19;;;;;;;10.13;3.00;;;;;;;;;;5108351;28;24513;-58
2022/01/20 14:05:47;;;;;;;8.95;2.65;;;;;;;;;;5108383;28;24958;-59
2022/01/20 14:08:12;;;;;;;7.55;2.65;;;;;;;;;;5108524;28;24933;-60
2022/01/20 14:10:38;;;;;;;6.73;2.60;;;;;;;;;;5108428;28;25049;-58
2022/01/20 14:13:03;;;;;;;5.22;2.38;;;;;;;;;;5107694;28;24919;-59
2022/01/20 14:15:28;;;;;;;9.60;2.67;;;;;;;;;;5108409;28;24406;-59
2022/01/20 14:17:56;;;;;;;7.53;2.60;;;;;;;;;;5107889;28;24414;-59
2022/01/20 14:20:23;;;;;;;5.55;2.30;;;;;;;;;;5107271;28;24508;-58
2022/01/20 14:22:49;;;;;;;8.52;3.20;;;;;;;;;;5107768;28;24505;-58
2022/01/20 14:25:14;;;;;;;8.20;3.00;;;;;;;;;;5108240;28;25081;-57
2022/01/20 14:27:40;;;;;;;6.43;2.57;;;;;;;;;;5108139;28;24401;-57
2022/01/20 14:30:06;;;;;;;5.50;2.58;;;;;;;;;;5107567;28;24404;-57
2022/01/20 14:32:31;;;;;;;11.93;3.28;;;;;;;;;;5107182;28;25008;-57
2022/01/20 14:34:56;;;;;;;5.80;2.58;;;;;;;;;;5107385;28;24422;-57
2022/01/20 14:37:22;;;;;;;10.05;3.40;;;;;;;;;;5109815;27;24892;-57
2022/01/20 14:39:47;;;;;;;8.70;2.90;;;;;;;;;;5127720;27;24497;-57
2022/01/20 14:42:16;;;;;;;8.03;2.80;;;;;;;;;;5127696;27;24420;-57
2022/01/20 14:44:42;;;;;;;7.15;3.25;;;;;;;;;;5127690;27;24396;-57
2022/01/20 14:47:07;;;;;;;7.10;2.90;;;;;;;;;;5126841;27;24454;-58
2022/01/20 14:49:33;;;;;;;8.57;3.40;;;;;;;;;;5127685;27;24997;-57
2022/01/20 14:51:59;;;;;;;9.47;2.70;;;;;;;;;;5127352;27;24500;-57
2022/01/20 14:54:24;;;;;;;6.22;2.45;;;;;;;;;;5127794;27;24915;-56
2022/01/20 14:56:49;;;;;;;8.10;3.40;;;;;;;;;;5127942;27;24405;-57
2022/01/20 14:59:14;;;;;;;11.38;3.17;;;;;;;;;;5127287;27;24452;-59
2022/01/20 15:01:40;;;;;;;7.43;2.77;;;;;;;;;;5123307;27;24400;-57
2022/01/20 15:04:05;;;;;;;8.30;2.80;;;;;;;;;;5124636;27;24577;-58
2022/01/20 15:06:31;;;;;;;8.10;3.10;;;;;;;;;;5123702;27;24747;-59
2022/01/20 15:08:56;;;;;;;7.60;2.97;;;;;;;;;;5127328;27;24962;-57
2022/01/20 15:11:21;;;;;;;6.90;3.10;;;;;;;;;;5127082;27;25002;-58
2022/01/20 15:13:47;;;;;;;8.67;2.50;;;;;;;;;;5126545;27;25233;-58
2022/01/20 15:16:12;;;;;;;9.97;3.00;;;;;;;;;;5127535;27;24420;-57
2022/01/20 15:18:37;;;;;;;4.17;2.37;;;;;;;;;;5127384;27;24405;-58
2022/01/20 15:21:02;;;;;;;7.20;3.30;;;;;;;;;;5126942;27;25016;-57
2022/01/20 15:23:27;;;;;;;8.57;3.00;;;;;;;;;;5126300;27;25053;-57
2022/01/20 15:25:53;;;;;;;5.43;2.63;;;;;;;;;;5124971;27;24733;-58
2022/01/20 15:28:18;;;;;;;8.63;3.10;;;;;;;;;;5126441;27;24397;-58
2022/01/20 15:30:44;;;;;;;8.75;3.45;;;;;;;;;;5125927;27;24509;-58
2022/01/20 15:33:09;;;;;;;8.40;3.00;;;;;;;;;;5125610;27;24454;-57
2022/01/20 15:35:34;;;;;;;6.70;2.83;;;;;;;;;;5120655;27;24931;-57
2022/01/20 15:37:59;;;;;;;6.10;2.73;;;;;;;;;;5119095;27;24733;-58